sensor_id;sensor_type;location;lat;lon;timestamp;temperature;humidity
33863;DHT22;20158;51.436;-2.742;2023-09-18T00:01:17;19.40;83.40
33863;DHT22;20158;51.436;-2.742;2023-09-18T00:03:45;19.40;83.40
33863;DHT22;20158;51.436;-2.742;2023-09-18T00:06:11;19.40;83.40
33863;DHT22;20158;51.436;-2.742;2023-09-18T00:08:39;19.40;83.50
33863;DHT22;20158;51.436;-2.742;2023-09-18T00:11:05;19.40;83.50
33863;DHT22;20158;51.436;-2.742;2023-09-18T00:13:32;19.40;83.50
33863;DHT22;20158;51.436;-2.742;2023-09-18T00:15:58;19.40;83.50
33863;DHT22;20158;51.436;-2.742;2023-09-18T00:18:25;19.40;83.50
33863;DHT22;20158;51.436;-2.742;2023-09-18T00:20:51;19.40;83.60
33863;DHT22;20158;51.436;-2.742;2023-09-18T00:23:17;19.40;83.50
33863;DHT22;20158;51.436;-2.742;2023-09-18T00:25:44;19.40;83.50
33863;DHT22;20158;51.436;-2.742;2023-09-18T00:28:10;19.40;83.50
33863;DHT22;20158;51.436;-2.742;2023-09-18T00:30:38;19.40;83.50
33863;DHT22;20158;51.436;-2.742;2023-09-18T00:33:08;19.40;83.50
33863;DHT22;20158;51.436;-2.742;2023-09-18T00:35:34;19.30;83.40
33863;DHT22;20158;51.436;-2.742;2023-09-18T00:38:00;19.30;83.40
33863;DHT22;20158;51.436;-2.742;2023-09-18T00:40:29;19.30;83.40
33863;DHT22;20158;51.436;-2.742;2023-09-18T00:42:55;19.30;83.50
33863;DHT22;20158;51.436;-2.742;2023-09-18T00:45:21;19.20;83.30
33863;DHT22;20158;51.436;-2.742;2023-09-18T00:47:50;19.20;83.40
33863;DHT22;20158;51.436;-2.742;2023-09-18T00:50:16;19.20;83.50
33863;DHT22;20158;51.436;-2.742;2023-09-18T00:52:42;19.10;83.30
33863;DHT22;20158;51.436;-2.742;2023-09-18T00:55:09;19.10;83.30
33863;DHT22;20158;51.436;-2.742;2023-09-18T00:57:35;19.10;83.30
33863;DHT22;20158;51.436;-2.742;2023-09-18T01:00:02;19.10;83.40
33863;DHT22;20158;51.436;-2.742;2023-09-18T01:02:31;19.00;83.30
33863;DHT22;20158;51.436;-2.742;2023-09-18T01:04:57;19.10;83.50
33863;DHT22;20158;51.436;-2.742;2023-09-18T01:07:23;19.00;83.30
33863;DHT22;20158;51.436;-2.742;2023-09-18T01:09:50;19.00;83.30
33863;DHT22;20158;51.436;-2.742;2023-09-18T01:15:15;19.00;83.40
33863;DHT22;20158;51.436;-2.742;2023-09-18T01:17:43;19.00;83.40
33863;DHT22;20158;51.436;-2.742;2023-09-18T01:20:11;18.90;83.10
33863;DHT22;20158;51.436;-2.742;2023-09-18T01:22:37;19.00;83.40
33863;DHT22;20158;51.436;-2.742;2023-09-18T01:25:03;19.00;83.40
33863;DHT22;20158;51.436;-2.742;2023-09-18T01:27:30;18.90;83.20
33863;DHT22;20158;51.436;-2.742;2023-09-18T01:29:56;18.90;83.20
33863;DHT22;20158;51.436;-2.742;2023-09-18T01:32:24;18.90;83.20
33863;DHT22;20158;51.436;-2.742;2023-09-18T01:34:54;18.90;83.20
33863;DHT22;20158;51.436;-2.742;2023-09-18T01:37:24;18.90;83.20
33863;DHT22;20158;51.436;-2.742;2023-09-18T01:39:51;18.90;83.30
33863;DHT22;20158;51.436;-2.742;2023-09-18T01:42:18;18.90;83.30
33863;DHT22;20158;51.436;-2.742;2023-09-18T01:44:47;18.80;83.10
33863;DHT22;20158;51.436;-2.742;2023-09-18T01:47:16;18.80;83.10
33863;DHT22;20158;51.436;-2.742;2023-09-18T01:49:43;18.80;83.10
33863;DHT22;20158;51.436;-2.742;2023-09-18T01:52:09;18.80;83.10
33863;DHT22;20158;51.436;-2.742;2023-09-18T01:54:36;18.70;83.00
33863;DHT22;20158;51.436;-2.742;2023-09-18T01:57:02;18.70;83.00
33863;DHT22;20158;51.436;-2.742;2023-09-18T01:59:29;18.70;83.00
33863;DHT22;20158;51.436;-2.742;2023-09-18T02:01:55;18.70;83.00
33863;DHT22;20158;51.436;-2.742;2023-09-18T02:04:22;18.60;82.90
33863;DHT22;20158;51.436;-2.742;2023-09-18T02:06:49;18.60;82.90
33863;DHT22;20158;51.436;-2.742;2023-09-18T02:09:16;18.60;83.00
33863;DHT22;20158;51.436;-2.742;2023-09-18T02:11:44;18.60;83.00
33863;DHT22;20158;51.436;-2.742;2023-09-18T02:14:10;18.60;83.00
33863;DHT22;20158;51.436;-2.742;2023-09-18T02:16:38;18.60;83.00
33863;DHT22;20158;51.436;-2.742;2023-09-18T02:19:12;18.50;82.80
33863;DHT22;20158;51.436;-2.742;2023-09-18T02:21:43;18.50;82.80
33863;DHT22;20158;51.436;-2.742;2023-09-18T02:24:09;18.50;82.80
33863;DHT22;20158;51.436;-2.742;2023-09-18T02:26:35;18.50;82.90
33863;DHT22;20158;51.436;-2.742;2023-09-18T02:29:08;18.40;82.70
33863;DHT22;20158;51.436;-2.742;2023-09-18T02:31:37;18.40;82.80
33863;DHT22;20158;51.436;-2.742;2023-09-18T02:34:03;18.40;82.80
33863;DHT22;20158;51.436;-2.742;2023-09-18T02:36:29;18.40;82.80
33863;DHT22;20158;51.436;-2.742;2023-09-18T02:38:55;18.40;82.80
33863;DHT22;20158;51.436;-2.742;2023-09-18T02:41:21;18.40;82.90
33863;DHT22;20158;51.436;-2.742;2023-09-18T02:43:48;18.30;82.80
33863;DHT22;20158;51.436;-2.742;2023-09-18T02:46:13;18.30;82.80
33863;DHT22;20158;51.436;-2.742;2023-09-18T02:48:39;18.30;82.80
33863;DHT22;20158;51.436;-2.742;2023-09-18T02:51:05;18.30;82.80
33863;DHT22;20158;51.436;-2.742;2023-09-18T02:53:31;18.20;82.70
33863;DHT22;20158;51.436;-2.742;2023-09-18T02:55:59;18.20;82.70
33863;DHT22;20158;51.436;-2.742;2023-09-18T02:58:26;18.20;82.70
33863;DHT22;20158;51.436;-2.742;2023-09-18T03:00:56;18.20;82.70
33863;DHT22;20158;51.436;-2.742;2023-09-18T03:03:25;18.10;83.00
33863;DHT22;20158;51.436;-2.742;2023-09-18T03:05:52;18.20;82.70
33863;DHT22;20158;51.436;-2.742;2023-09-18T03:08:18;18.10;82.60
33863;DHT22;20158;51.436;-2.742;2023-09-18T03:10:45;18.10;82.60
33863;DHT22;20158;51.436;-2.742;2023-09-18T03:13:14;18.00;82.40
33863;DHT22;20158;51.436;-2.742;2023-09-18T03:15:41;18.00;82.40
33863;DHT22;20158;51.436;-2.742;2023-09-18T03:18:09;18.00;82.40
33863;DHT22;20158;51.436;-2.742;2023-09-18T03:20:37;18.00;82.50
33863;DHT22;20158;51.436;-2.742;2023-09-18T03:23:03;18.00;82.50
33863;DHT22;20158;51.436;-2.742;2023-09-18T03:25:30;17.90;82.30
33863;DHT22;20158;51.436;-2.742;2023-09-18T03:27:57;17.90;82.40
33863;DHT22;20158;51.436;-2.742;2023-09-18T03:30:27;17.80;82.20
33863;DHT22;20158;51.436;-2.742;2023-09-18T03:32:53;17.80;82.20
33863;DHT22;20158;51.436;-2.742;2023-09-18T03:35:21;17.80;82.30
33863;DHT22;20158;51.436;-2.742;2023-09-18T03:37:50;17.80;82.30
33863;DHT22;20158;51.436;-2.742;2023-09-18T03:40:17;17.80;82.30
33863;DHT22;20158;51.436;-2.742;2023-09-18T03:42:47;17.70;82.20
33863;DHT22;20158;51.436;-2.742;2023-09-18T03:45:13;17.70;82.20
33863;DHT22;20158;51.436;-2.742;2023-09-18T03:47:41;17.70;82.30
33863;DHT22;20158;51.436;-2.742;2023-09-18T03:50:08;17.60;82.10
33863;DHT22;20158;51.436;-2.742;2023-09-18T03:52:35;17.60;82.10
33863;DHT22;20158;51.436;-2.742;2023-09-18T03:55:02;17.60;82.20
33863;DHT22;20158;51.436;-2.742;2023-09-18T03:57:28;17.60;82.20
33863;DHT22;20158;51.436;-2.742;2023-09-18T03:59:54;17.60;82.30
33863;DHT22;20158;51.436;-2.742;2023-09-18T04:02:23;17.50;82.10
33863;DHT22;20158;51.436;-2.742;2023-09-18T04:04:51;17.50;82.10
33863;DHT22;20158;51.436;-2.742;2023-09-18T04:07:17;17.50;82.10
33863;DHT22;20158;51.436;-2.742;2023-09-18T04:09:45;17.50;82.10
33863;DHT22;20158;51.436;-2.742;2023-09-18T04:12:11;17.50;82.10
33863;DHT22;20158;51.436;-2.742;2023-09-18T04:14:38;17.40;82.00
33863;DHT22;20158;51.436;-2.742;2023-09-18T04:17:05;17.40;82.00
33863;DHT22;20158;51.436;-2.742;2023-09-18T04:19:31;17.40;82.00
33863;DHT22;20158;51.436;-2.742;2023-09-18T04:21:58;17.40;82.00
33863;DHT22;20158;51.436;-2.742;2023-09-18T04:24:25;17.30;81.80
33863;DHT22;20158;51.436;-2.742;2023-09-18T04:26:52;17.30;81.80
33863;DHT22;20158;51.436;-2.742;2023-09-18T04:29:19;17.30;81.80
33863;DHT22;20158;51.436;-2.742;2023-09-18T04:31:46;17.20;82.20
33863;DHT22;20158;51.436;-2.742;2023-09-18T04:34:14;17.20;81.70
33863;DHT22;20158;51.436;-2.742;2023-09-18T04:36:40;17.20;81.60
33863;DHT22;20158;51.436;-2.742;2023-09-18T04:39:06;17.20;82.20
33863;DHT22;20158;51.436;-2.742;2023-09-18T04:41:33;17.10;81.50
33863;DHT22;20158;51.436;-2.742;2023-09-18T04:44:00;17.10;81.50
33863;DHT22;20158;51.436;-2.742;2023-09-18T04:46:28;17.10;81.50
33863;DHT22;20158;51.436;-2.742;2023-09-18T04:48:55;17.00;81.30
33863;DHT22;20158;51.436;-2.742;2023-09-18T04:51:21;17.00;81.30
33863;DHT22;20158;51.436;-2.742;2023-09-18T04:53:47;17.00;81.30
33863;DHT22;20158;51.436;-2.742;2023-09-18T04:56:13;17.00;81.30
33863;DHT22;20158;51.436;-2.742;2023-09-18T04:58:40;16.90;81.10
33863;DHT22;20158;51.436;-2.742;2023-09-18T05:01:06;16.90;81.10
33863;DHT22;20158;51.436;-2.742;2023-09-18T05:03:34;16.90;81.20
33863;DHT22;20158;51.436;-2.742;2023-09-18T05:06:00;16.90;81.20
33863;DHT22;20158;51.436;-2.742;2023-09-18T05:08:26;16.80;81.00
33863;DHT22;20158;51.436;-2.742;2023-09-18T05:10:53;16.80;81.00
33863;DHT22;20158;51.436;-2.742;2023-09-18T05:13:19;16.70;80.90
33863;DHT22;20158;51.436;-2.742;2023-09-18T05:15:45;16.70;80.90
33863;DHT22;20158;51.436;-2.742;2023-09-18T05:18:11;16.70;80.90
33863;DHT22;20158;51.436;-2.742;2023-09-18T05:20:37;16.70;81.00
33863;DHT22;20158;51.436;-2.742;2023-09-18T05:23:03;16.60;80.80
33863;DHT22;20158;51.436;-2.742;2023-09-18T05:25:29;16.60;80.80
33863;DHT22;20158;51.436;-2.742;2023-09-18T05:27:58;16.60;80.80
33863;DHT22;20158;51.436;-2.742;2023-09-18T05:30:27;16.60;80.80
33863;DHT22;20158;51.436;-2.742;2023-09-18T05:33:01;16.50;80.70
33863;DHT22;20158;51.436;-2.742;2023-09-18T05:35:40;16.50;81.20
33863;DHT22;20158;51.436;-2.742;2023-09-18T05:38:08;16.50;80.60
33863;DHT22;20158;51.436;-2.742;2023-09-18T05:40:35;16.50;80.60
33863;DHT22;20158;51.436;-2.742;2023-09-18T05:43:01;16.40;80.50
33863;DHT22;20158;51.436;-2.742;2023-09-18T05:45:28;16.40;80.50
33863;DHT22;20158;51.436;-2.742;2023-09-18T05:47:54;16.40;80.50
33863;DHT22;20158;51.436;-2.742;2023-09-18T05:50:27;16.40;80.50
33863;DHT22;20158;51.436;-2.742;2023-09-18T05:52:55;16.30;80.30
33863;DHT22;20158;51.436;-2.742;2023-09-18T05:55:26;16.30;80.90
33863;DHT22;20158;51.436;-2.742;2023-09-18T05:57:53;16.30;80.40
33863;DHT22;20158;51.436;-2.742;2023-09-18T06:00:19;16.30;80.40
33863;DHT22;20158;51.436;-2.742;2023-09-18T06:02:45;16.30;80.30
33863;DHT22;20158;51.436;-2.742;2023-09-18T06:05:11;16.30;80.30
33863;DHT22;20158;51.436;-2.742;2023-09-18T06:07:37;16.30;80.30
33863;DHT22;20158;51.436;-2.742;2023-09-18T06:10:05;16.20;80.10
33863;DHT22;20158;51.436;-2.742;2023-09-18T06:12:31;16.20;80.10
33863;DHT22;20158;51.436;-2.742;2023-09-18T06:14:57;16.20;80.20
33863;DHT22;20158;51.436;-2.742;2023-09-18T06:17:24;16.20;80.20
33863;DHT22;20158;51.436;-2.742;2023-09-18T06:19:50;16.20;80.30
33863;DHT22;20158;51.436;-2.742;2023-09-18T06:22:16;16.20;80.30
33863;DHT22;20158;51.436;-2.742;2023-09-18T06:24:42;16.20;80.30
33863;DHT22;20158;51.436;-2.742;2023-09-18T06:27:08;16.20;80.20
33863;DHT22;20158;51.436;-2.742;2023-09-18T06:29:35;16.30;80.40
33863;DHT22;20158;51.436;-2.742;2023-09-18T06:32:03;16.30;80.30
33863;DHT22;20158;51.436;-2.742;2023-09-18T06:34:29;16.30;80.30
33863;DHT22;20158;51.436;-2.742;2023-09-18T06:36:55;16.30;80.30
33863;DHT22;20158;51.436;-2.742;2023-09-18T06:39:21;16.30;80.20
33863;DHT22;20158;51.436;-2.742;2023-09-18T06:41:50;16.40;80.30
33863;DHT22;20158;51.436;-2.742;2023-09-18T06:44:18;16.40;80.30
33863;DHT22;20158;51.436;-2.742;2023-09-18T06:46:45;16.40;80.70
33863;DHT22;20158;51.436;-2.742;2023-09-18T06:49:10;16.50;80.30
33863;DHT22;20158;51.436;-2.742;2023-09-18T06:51:36;16.60;80.30
33863;DHT22;20158;51.436;-2.742;2023-09-18T06:54:03;16.70;80.40
33863;DHT22;20158;51.436;-2.742;2023-09-18T06:56:29;16.80;80.40
33863;DHT22;20158;51.436;-2.742;2023-09-18T06:58:55;16.90;80.40
33863;DHT22;20158;51.436;-2.742;2023-09-18T07:01:22;16.90;80.20
33863;DHT22;20158;51.436;-2.742;2023-09-18T07:03:50;17.00;80.20
33863;DHT22;20158;51.436;-2.742;2023-09-18T07:06:28;17.10;80.30
33863;DHT22;20158;51.436;-2.742;2023-09-18T07:08:54;17.20;80.40
33863;DHT22;20158;51.436;-2.742;2023-09-18T07:11:20;17.20;80.30
33863;DHT22;20158;51.436;-2.742;2023-09-18T07:13:46;17.20;80.20
33863;DHT22;20158;51.436;-2.742;2023-09-18T07:16:12;17.30;80.50
33863;DHT22;20158;51.436;-2.742;2023-09-18T07:18:38;17.30;80.60
33863;DHT22;20158;51.436;-2.742;2023-09-18T07:21:05;17.30;80.70
33863;DHT22;20158;51.436;-2.742;2023-09-18T07:23:31;17.40;80.90
33863;DHT22;20158;51.436;-2.742;2023-09-18T07:25:57;17.40;81.10
33863;DHT22;20158;51.436;-2.742;2023-09-18T07:28:25;17.40;81.30
33863;DHT22;20158;51.436;-2.742;2023-09-18T07:30:51;17.50;81.50
33863;DHT22;20158;51.436;-2.742;2023-09-18T07:33:17;17.60;81.70
33863;DHT22;20158;51.436;-2.742;2023-09-18T07:35:49;17.70;81.90
33863;DHT22;20158;51.436;-2.742;2023-09-18T07:38:17;17.70;82.00
33863;DHT22;20158;51.436;-2.742;2023-09-18T07:40:46;17.80;82.00
33863;DHT22;20158;51.436;-2.742;2023-09-18T07:43:13;17.90;82.20
33863;DHT22;20158;51.436;-2.742;2023-09-18T07:45:39;17.90;82.20
33863;DHT22;20158;51.436;-2.742;2023-09-18T07:48:07;17.90;82.30
33863;DHT22;20158;51.436;-2.742;2023-09-18T07:50:37;17.90;82.30
33863;DHT22;20158;51.436;-2.742;2023-09-18T07:53:03;18.00;82.70
33863;DHT22;20158;51.436;-2.742;2023-09-18T07:55:29;18.00;82.70
33863;DHT22;20158;51.436;-2.742;2023-09-18T07:57:56;18.00;82.80
33863;DHT22;20158;51.436;-2.742;2023-09-18T08:00:22;18.00;82.90
33863;DHT22;20158;51.436;-2.742;2023-09-18T08:02:49;18.00;83.00
33863;DHT22;20158;51.436;-2.742;2023-09-18T08:05:16;18.00;83.00
33863;DHT22;20158;51.436;-2.742;2023-09-18T08:07:42;18.10;83.20
33863;DHT22;20158;51.436;-2.742;2023-09-18T08:10:08;18.10;83.20
33863;DHT22;20158;51.436;-2.742;2023-09-18T08:12:35;18.10;83.20
33863;DHT22;20158;51.436;-2.742;2023-09-18T08:15:01;18.20;83.40
33863;DHT22;20158;51.436;-2.742;2023-09-18T08:17:28;18.20;83.40
33863;DHT22;20158;51.436;-2.742;2023-09-18T08:19:55;18.30;83.60
33863;DHT22;20158;51.436;-2.742;2023-09-18T08:22:27;18.30;83.60
33863;DHT22;20158;51.436;-2.742;2023-09-18T08:24:53;18.30;83.60
33863;DHT22;20158;51.436;-2.742;2023-09-18T08:27:19;18.30;83.60
33863;DHT22;20158;51.436;-2.742;2023-09-18T08:29:48;18.30;83.60
33863;DHT22;20158;51.436;-2.742;2023-09-18T08:32:14;18.30;83.70
33863;DHT22;20158;51.436;-2.742;2023-09-18T08:34:40;18.30;83.70
33863;DHT22;20158;51.436;-2.742;2023-09-18T08:37:06;18.30;83.80
33863;DHT22;20158;51.436;-2.742;2023-09-18T08:39:32;18.30;83.80
33863;DHT22;20158;51.436;-2.742;2023-09-18T08:42:04;18.40;83.90
33863;DHT22;20158;51.436;-2.742;2023-09-18T08:44:31;18.50;84.00
33863;DHT22;20158;51.436;-2.742;2023-09-18T08:46:57;18.50;83.90
33863;DHT22;20158;51.436;-2.742;2023-09-18T08:49:26;18.70;84.00
33863;DHT22;20158;51.436;-2.742;2023-09-18T08:51:55;18.80;83.90
33863;DHT22;20158;51.436;-2.742;2023-09-18T08:54:22;18.90;83.80
33863;DHT22;20158;51.436;-2.742;2023-09-18T08:56:52;19.00;83.60
33863;DHT22;20158;51.436;-2.742;2023-09-18T08:59:24;19.20;83.50
33863;DHT22;20158;51.436;-2.742;2023-09-18T09:01:51;19.40;83.30
33863;DHT22;20158;51.436;-2.742;2023-09-18T09:04:18;19.50;83.00
33863;DHT22;20158;51.436;-2.742;2023-09-18T09:06:44;19.60;82.90
33863;DHT22;20158;51.436;-2.742;2023-09-18T09:09:10;19.70;82.90
33863;DHT22;20158;51.436;-2.742;2023-09-18T09:11:39;19.80;82.70
33863;DHT22;20158;51.436;-2.742;2023-09-18T09:14:13;19.90;82.60
33863;DHT22;20158;51.436;-2.742;2023-09-18T09:16:50;19.90;82.60
33863;DHT22;20158;51.436;-2.742;2023-09-18T09:19:16;19.90;82.50
33863;DHT22;20158;51.436;-2.742;2023-09-18T09:21:44;19.90;82.40
33863;DHT22;20158;51.436;-2.742;2023-09-18T09:24:11;19.90;82.20
33863;DHT22;20158;51.436;-2.742;2023-09-18T09:26:40;20.00;82.40
33863;DHT22;20158;51.436;-2.742;2023-09-18T09:29:19;19.90;82.20
33863;DHT22;20158;51.436;-2.742;2023-09-18T09:31:49;19.90;82.30
33863;DHT22;20158;51.436;-2.742;2023-09-18T09:34:26;20.00;82.30
33863;DHT22;20158;51.436;-2.742;2023-09-18T09:36:54;20.10;82.30
33863;DHT22;20158;51.436;-2.742;2023-09-18T09:39:22;20.10;82.10
33863;DHT22;20158;51.436;-2.742;2023-09-18T09:41:51;20.20;82.00
33863;DHT22;20158;51.436;-2.742;2023-09-18T09:44:23;20.10;81.80
33863;DHT22;20158;51.436;-2.742;2023-09-18T09:46:50;20.10;81.80
33863;DHT22;20158;51.436;-2.742;2023-09-18T09:49:20;20.10;81.90
33863;DHT22;20158;51.436;-2.742;2023-09-18T09:51:46;20.10;81.80
33863;DHT22;20158;51.436;-2.742;2023-09-18T09:54:13;20.20;82.00
33863;DHT22;20158;51.436;-2.742;2023-09-18T09:56:41;20.20;82.00
33863;DHT22;20158;51.436;-2.742;2023-09-18T09:59:07;20.30;82.10
33863;DHT22;20158;51.436;-2.742;2023-09-18T10:01:35;20.30;81.90
33863;DHT22;20158;51.436;-2.742;2023-09-18T10:04:05;20.50;81.90
33863;DHT22;20158;51.436;-2.742;2023-09-18T10:06:34;20.60;81.50
33863;DHT22;20158;51.436;-2.742;2023-09-18T10:09:03;20.70;81.40
33863;DHT22;20158;51.436;-2.742;2023-09-18T10:11:38;20.70;81.30
33863;DHT22;20158;51.436;-2.742;2023-09-18T10:14:15;20.70;81.30
33863;DHT22;20158;51.436;-2.742;2023-09-18T10:16:45;20.70;81.20
33863;DHT22;20158;51.436;-2.742;2023-09-18T10:21:59;20.80;81.20
33863;DHT22;20158;51.436;-2.742;2023-09-18T10:24:34;20.80;81.10
33863;DHT22;20158;51.436;-2.742;2023-09-18T10:27:05;20.90;81.00
33863;DHT22;20158;51.436;-2.742;2023-09-18T10:29:36;21.10;81.00
33863;DHT22;20158;51.436;-2.742;2023-09-18T10:32:03;21.20;80.60
33863;DHT22;20158;51.436;-2.742;2023-09-18T10:34:39;21.30;80.30
33863;DHT22;20158;51.436;-2.742;2023-09-18T10:37:08;21.40;80.20
33863;DHT22;20158;51.436;-2.742;2023-09-18T10:39:37;21.60;80.20
33863;DHT22;20158;51.436;-2.742;2023-09-18T10:42:08;21.70;80.00
33863;DHT22;20158;51.436;-2.742;2023-09-18T10:44:35;21.80;79.70
33863;DHT22;20158;51.436;-2.742;2023-09-18T10:47:03;21.90;79.50
33863;DHT22;20158;51.436;-2.742;2023-09-18T10:49:35;22.00;79.20
33863;DHT22;20158;51.436;-2.742;2023-09-18T10:52:02;22.10;79.00
33863;DHT22;20158;51.436;-2.742;2023-09-18T10:54:30;22.10;78.70
33863;DHT22;20158;51.436;-2.742;2023-09-18T10:56:57;22.20;78.70
33863;DHT22;20158;51.436;-2.742;2023-09-18T10:59:24;22.20;78.50
33863;DHT22;20158;51.436;-2.742;2023-09-18T11:01:50;22.30;78.40
33863;DHT22;20158;51.436;-2.742;2023-09-18T11:04:20;22.40;78.30
33863;DHT22;20158;51.436;-2.742;2023-09-18T11:09:32;22.70;78.00
33863;DHT22;20158;51.436;-2.742;2023-09-18T11:12:03;22.80;77.90
33863;DHT22;20158;51.436;-2.742;2023-09-18T11:14:46;22.90;77.70
33863;DHT22;20158;51.436;-2.742;2023-09-18T11:20:21;23.10;77.40
33863;DHT22;20158;51.436;-2.742;2023-09-18T11:22:50;23.20;77.20
33863;DHT22;20158;51.436;-2.742;2023-09-18T11:25:34;23.20;77.20
33863;DHT22;20158;51.436;-2.742;2023-09-18T11:28:01;23.20;77.00
33863;DHT22;20158;51.436;-2.742;2023-09-18T11:30:35;23.20;77.00
33863;DHT22;20158;51.436;-2.742;2023-09-18T11:33:04;23.20;76.70
33863;DHT22;20158;51.436;-2.742;2023-09-18T11:35:31;23.20;76.50
33863;DHT22;20158;51.436;-2.742;2023-09-18T11:38:09;23.10;76.10
33863;DHT22;20158;51.436;-2.742;2023-09-18T11:40:37;23.00;75.80
33863;DHT22;20158;51.436;-2.742;2023-09-18T11:43:24;23.00;75.90
33863;DHT22;20158;51.436;-2.742;2023-09-18T11:45:53;22.90;75.50
33863;DHT22;20158;51.436;-2.742;2023-09-18T11:48:24;22.90;75.70
33863;DHT22;20158;51.436;-2.742;2023-09-18T11:50:53;22.80;75.40
33863;DHT22;20158;51.436;-2.742;2023-09-18T11:53:24;22.80;75.50
33863;DHT22;20158;51.436;-2.742;2023-09-18T11:55:52;22.70;75.40
33863;DHT22;20158;51.436;-2.742;2023-09-18T11:58:21;22.80;75.30
33863;DHT22;20158;51.436;-2.742;2023-09-18T12:00:50;22.80;75.00
33863;DHT22;20158;51.436;-2.742;2023-09-18T12:03:21;22.80;74.70
33863;DHT22;20158;51.436;-2.742;2023-09-18T12:06:01;22.90;74.50
33863;DHT22;20158;51.436;-2.742;2023-09-18T12:08:31;23.00;74.20
33863;DHT22;20158;51.436;-2.742;2023-09-18T12:10:58;23.20;74.10
33863;DHT22;20158;51.436;-2.742;2023-09-18T12:13:27;23.30;73.60
33863;DHT22;20158;51.436;-2.742;2023-09-18T12:16:03;23.50;73.20
33863;DHT22;20158;51.436;-2.742;2023-09-18T12:18:35;23.60;72.60
33863;DHT22;20158;51.436;-2.742;2023-09-18T12:21:07;23.80;72.60
33863;DHT22;20158;51.436;-2.742;2023-09-18T12:23:40;23.80;72.00
33863;DHT22;20158;51.436;-2.742;2023-09-18T12:26:13;23.90;72.00
33863;DHT22;20158;51.436;-2.742;2023-09-18T12:28:43;23.90;71.70
33863;DHT22;20158;51.436;-2.742;2023-09-18T12:31:13;24.00;71.60
33863;DHT22;20158;51.436;-2.742;2023-09-18T12:33:40;24.10;71.40
33863;DHT22;20158;51.436;-2.742;2023-09-18T12:36:08;24.10;71.10
33863;DHT22;20158;51.436;-2.742;2023-09-18T12:38:40;24.20;70.70
33863;DHT22;20158;51.436;-2.742;2023-09-18T12:41:06;24.30;70.70
33863;DHT22;20158;51.436;-2.742;2023-09-18T12:43:42;24.40;70.90
33863;DHT22;20158;51.436;-2.742;2023-09-18T12:46:10;24.50;70.50
33863;DHT22;20158;51.436;-2.742;2023-09-18T12:48:40;24.50;70.20
33863;DHT22;20158;51.436;-2.742;2023-09-18T12:51:14;24.60;70.00
33863;DHT22;20158;51.436;-2.742;2023-09-18T12:53:40;24.70;70.00
33863;DHT22;20158;51.436;-2.742;2023-09-18T12:56:09;24.80;69.80
33863;DHT22;20158;51.436;-2.742;2023-09-18T12:58:36;24.90;69.50
33863;DHT22;20158;51.436;-2.742;2023-09-18T13:01:09;25.00;69.20
33863;DHT22;20158;51.436;-2.742;2023-09-18T13:03:44;25.10;69.20
33863;DHT22;20158;51.436;-2.742;2023-09-18T13:06:18;25.10;69.20
33863;DHT22;20158;51.436;-2.742;2023-09-18T13:08:45;25.10;69.00
33863;DHT22;20158;51.436;-2.742;2023-09-18T13:11:14;25.00;68.70
33863;DHT22;20158;51.436;-2.742;2023-09-18T13:13:42;24.90;68.50
33863;DHT22;20158;51.436;-2.742;2023-09-18T13:16:10;24.80;68.30
33863;DHT22;20158;51.436;-2.742;2023-09-18T13:18:39;24.70;68.10
33863;DHT22;20158;51.436;-2.742;2023-09-18T13:21:13;24.70;68.10
33863;DHT22;20158;51.436;-2.742;2023-09-18T13:23:42;24.60;67.60
33863;DHT22;20158;51.436;-2.742;2023-09-18T13:26:11;24.60;67.80
33863;DHT22;20158;51.436;-2.742;2023-09-18T13:28:37;24.50;67.50
33863;DHT22;20158;51.436;-2.742;2023-09-18T13:31:06;24.50;67.30
33863;DHT22;20158;51.436;-2.742;2023-09-18T13:33:33;24.50;67.10
33863;DHT22;20158;51.436;-2.742;2023-09-18T13:36:03;24.40;66.80
33863;DHT22;20158;51.436;-2.742;2023-09-18T13:38:30;24.40;66.80
33863;DHT22;20158;51.436;-2.742;2023-09-18T13:40:56;24.50;66.90
33863;DHT22;20158;51.436;-2.742;2023-09-18T13:43:23;24.50;66.50
33863;DHT22;20158;51.436;-2.742;2023-09-18T13:45:49;24.50;66.20
33863;DHT22;20158;51.436;-2.742;2023-09-18T13:48:21;24.60;66.20
33863;DHT22;20158;51.436;-2.742;2023-09-18T13:50:48;24.60;66.10
33863;DHT22;20158;51.436;-2.742;2023-09-18T13:53:14;24.60;65.90
33863;DHT22;20158;51.436;-2.742;2023-09-18T13:55:40;24.70;65.80
33863;DHT22;20158;51.436;-2.742;2023-09-18T13:58:07;24.80;65.60
33863;DHT22;20158;51.436;-2.742;2023-09-18T14:00:33;25.00;66.10
33863;DHT22;20158;51.436;-2.742;2023-09-18T14:03:04;25.20;65.20
33863;DHT22;20158;51.436;-2.742;2023-09-18T14:05:30;25.20;64.80
33863;DHT22;20158;51.436;-2.742;2023-09-18T14:08:01;25.40;64.50
33863;DHT22;20158;51.436;-2.742;2023-09-18T14:10:28;25.50;64.10
33863;DHT22;20158;51.436;-2.742;2023-09-18T14:12:57;25.50;63.70
33863;DHT22;20158;51.436;-2.742;2023-09-18T14:15:23;25.60;63.60
33863;DHT22;20158;51.436;-2.742;2023-09-18T14:17:50;25.70;63.30
33863;DHT22;20158;51.436;-2.742;2023-09-18T14:20:16;25.80;63.10
33863;DHT22;20158;51.436;-2.742;2023-09-18T14:22:47;25.80;62.70
33863;DHT22;20158;51.436;-2.742;2023-09-18T14:25:16;25.80;62.30
33863;DHT22;20158;51.436;-2.742;2023-09-18T14:27:41;25.80;61.90
33863;DHT22;20158;51.436;-2.742;2023-09-18T14:30:08;25.80;61.70
33863;DHT22;20158;51.436;-2.742;2023-09-18T14:32:35;25.70;61.40
33863;DHT22;20158;51.436;-2.742;2023-09-18T14:35:07;25.60;61.30
33863;DHT22;20158;51.436;-2.742;2023-09-18T14:37:42;25.50;61.30
33863;DHT22;20158;51.436;-2.742;2023-09-18T14:40:08;25.60;61.30
33863;DHT22;20158;51.436;-2.742;2023-09-18T14:42:37;25.60;60.90
33863;DHT22;20158;51.436;-2.742;2023-09-18T14:45:12;25.60;60.70
33863;DHT22;20158;51.436;-2.742;2023-09-18T14:47:39;25.60;60.50
33863;DHT22;20158;51.436;-2.742;2023-09-18T14:50:07;25.50;60.20
33863;DHT22;20158;51.436;-2.742;2023-09-18T14:52:34;25.50;60.10
33863;DHT22;20158;51.436;-2.742;2023-09-18T14:55:00;25.50;59.90
33863;DHT22;20158;51.436;-2.742;2023-09-18T14:57:27;25.50;59.70
33863;DHT22;20158;51.436;-2.742;2023-09-18T14:59:53;25.50;59.70
33863;DHT22;20158;51.436;-2.742;2023-09-18T15:02:19;25.50;59.60
33863;DHT22;20158;51.436;-2.742;2023-09-18T15:04:48;25.50;59.50
33863;DHT22;20158;51.436;-2.742;2023-09-18T15:07:14;25.40;59.20
33863;DHT22;20158;51.436;-2.742;2023-09-18T15:09:41;25.50;59.20
33863;DHT22;20158;51.436;-2.742;2023-09-18T15:12:08;25.50;58.90
33863;DHT22;20158;51.436;-2.742;2023-09-18T15:14:42;25.50;58.50
33863;DHT22;20158;51.436;-2.742;2023-09-18T15:17:11;25.50;58.40
33863;DHT22;20158;51.436;-2.742;2023-09-18T15:19:37;25.60;58.30
33863;DHT22;20158;51.436;-2.742;2023-09-18T15:22:04;25.60;58.00
33863;DHT22;20158;51.436;-2.742;2023-09-18T15:24:31;25.60;57.90
33863;DHT22;20158;51.436;-2.742;2023-09-18T15:26:56;25.60;57.90
33863;DHT22;20158;51.436;-2.742;2023-09-18T15:29:25;25.60;57.90
33863;DHT22;20158;51.436;-2.742;2023-09-18T15:31:56;25.50;57.70